Nissos Schinoussa — SVCF6 — position and weather

sailwx.info

Track history (hours):
 
Tides and Currents Weather Stations Pressure Air Temp Water Temp Dewpoint Dewpoint Depression Visibility Wind Speed Wind Dir Waves Ship Positions

Nissos Schinoussa

Last reported at 2017-Sep-24 15:09 UTC. Time now 2017-Sep-25 06:29 UTC.
Position N 36°46' E 014°10'.

Length 252 m; draft 12.7 m.

Type: Tanker. MMSI: 241385000.

Date/timePositionNaut miles runAvg speedWind from/ knotsBaromVisibWave heightAir tempDewpointWater temp
2017-Sep-24 15:09N 36°46' E 014°10'212.1
2017-Sep-24 14:57N 36°45' E 014°13'612.5
2017-Sep-24 14:28N 36°43' E 014°20'612.6
2017-Sep-24 13:59N 36°40' E 014°27'612.3
2017-Sep-24 13:30N 36°38' E 014°34'612.4
2017-Sep-24 13:00N 36°35' E 014°41'612.2
2017-Sep-24 12:30N 36°32' E 014°48'612.0
2017-Sep-24 12:00N 36°30' E 014°54'611.9
2017-Sep-24 11:30N 36°27' E 015°01'611.8
2017-Sep-24 11:00N 36°26' E 015°08'  
2017-Sep-20 20:19N 41°30' E 029°08'0 0.1
2017-Sep-20 19:59N 41°30' E 029°08'2 0.6
2017-Sep-20 16:40N 41°29' E 029°11'0 0.8
2017-Sep-20 16:30N 41°29' E 029°11'1 0.8
2017-Sep-20 15:42N 41°29' E 029°12'0 0.8
2017-Sep-20 15:23N 41°29' E 029°12'5 3.3
2017-Sep-20 13:43N 41°30' E 029°20'310.5
2017-Sep-20 13:28N 41°30' E 029°23'511.2
2017-Sep-20 13:00N 41°31' E 029°30'611.7
2017-Sep-20 12:30N 41°32' E 029°38'2712.4
2017-Sep-20 10:19N 41°43' E 030°10'613.8
2017-Sep-20 09:51N 41°47' E 030°18'613.7
2017-Sep-20 09:25N 41°50' E 030°25'613.4
2017-Sep-20 08:56N 41°52' E 030°33'512.4
2017-Sep-20 08:30N 41°55' E 030°39'812.4
2017-Sep-20 07:50N 41°59' E 030°49'7212.4
2017-Sep-20 02:00N 42°31' E 032°16'812.4
2017-Sep-20 01:19N 42°35' E 032°26'412.4
2017-Sep-20 01:00N 42°37' E 032°31'612.5
2017-Sep-20 00:30N 42°39' E 032°39'1212.3
2017-Sep-19 23:33N 42°45' E 032°53'012.5
2017-Sep-19 23:30N 42°45' E 032°54'812.6
2017-Sep-19 22:52N 42°49' E 033°04'912.5
2017-Sep-19 22:07N 42°53' E 033°15'212.4
2017-Sep-19 21:59N 42°54' E 033°17'7612.2
2017-Sep-19 15:45N 43°28' E 034°50'8012.4
2017-Sep-19 09:17N 44°04' E 036°28'5212.5
2017-Sep-19 05:07N 44°28' E 037°33'212.1
2017-Sep-19 04:57N 44°29' E 037°36'511.7
2017-Sep-19 04:30N 44°33' E 037°41'4 8.1
2017-Sep-19 04:00N 44°36' E 037°45'1 1.5
2017-Sep-19 03:30N 44°36' E 037°45'0 0.4
2017-Sep-19 03:00N 44°36' E 037°45'0 0.4
2017-Sep-19 02:30N 44°37' E 037°45'0 0.5
2017-Sep-19 02:00N 44°37' E 037°45'0 0.6
2017-Sep-19 01:30N 44°37' E 037°44'1 1.2
2017-Sep-19 01:00N 44°37' E 037°43'2 3.5
2017-Sep-19 00:30N 44°36' E 037°41'2 4.0
2017-Sep-19 00:00N 44°36' E 037°38'1 2.4
2017-Sep-18 23:30N 44°37' E 037°38'0 0.0
2017-Sep-18 09:07N 44°38' E 037°38'0 0.2
2017-Sep-18 09:00N 44°38' E 037°38'1 1.5
2017-Sep-18 08:30N 44°37' E 037°39'1 2.9
2017-Sep-18 08:00N 44°36' E 037°40'1 1.7
2017-Sep-18 07:30N 44°35' E 037°40'4 8.4
2017-Sep-18 07:00N 44°35' E 037°46'510.3
2017-Sep-18 06:30N 44°36' E 037°53'1 1.5
2017-Sep-18 05:58N 44°36' E 037°54'0 0.0
2017-Sep-18 05:28N 44°36' E 037°54'0 0.0
2017-Sep-18 04:58N 44°36' E 037°54'0 0.0
2017-Sep-18 04:28N 44°36' E 037°54'0 0.0
2017-Sep-18 03:55N 44°36' E 037°54'0 0.0
2017-Sep-18 03:28N 44°36' E 037°54'0 0.0
2017-Sep-18 02:58N 44°36' E 037°54'0 0.0
2017-Sep-18 02:28N 44°36' E 037°54'0 0.0
2017-Sep-18 01:58N 44°36' E 037°54'0 0.0
2017-Sep-18 01:28N 44°36' E 037°54'0 0.0
2017-Sep-18 00:55N 44°36' E 037°54'0 0.0
2017-Sep-18 00:28N 44°36' E 037°54'0 0.0
2017-Sep-17 23:58N 44°36' E 037°54'0 0.0
2017-Sep-17 23:25N 44°36' E 037°54'0 0.0
2017-Sep-17 22:58N 44°36' E 037°54'0 0.0
2017-Sep-17 22:25N 44°36' E 037°54'0 0.1
2017-Sep-17 21:58N 44°36' E 037°54'0 0.4
2017-Sep-17 21:28N 44°36' E 037°54'0 0.1
2017-Sep-17 20:55N 44°36' E 037°54'0 0.0
2017-Sep-17 20:28N 44°36' E 037°54'0 0.0
2017-Sep-17 19:58N 44°36' E 037°54'0 0.0
2017-Sep-17 19:28N 44°36' E 037°54'0 0.0
2017-Sep-17 18:58N 44°36' E 037°54'0 0.0
2017-Sep-17 18:28N 44°36' E 037°54'0 0.0
2017-Sep-17 17:58N 44°36' E 037°54'0 0.0
2017-Sep-17 17:28N 44°36' E 037°54'0 0.0
2017-Sep-17 16:58N 44°36' E 037°54'0 0.0
2017-Sep-17 16:28N 44°36' E 037°54'0 0.0
2017-Sep-17 15:58N 44°36' E 037°54'0 0.0
2017-Sep-17 15:28N 44°36' E 037°54'0 0.0
2017-Sep-17 14:58N 44°36' E 037°54'0 0.0
2017-Sep-17 14:28N 44°36' E 037°54'0 0.0
2017-Sep-17 13:58N 44°36' E 037°54'0 0.0
2017-Sep-17 13:28N 44°36' E 037°54'0 0.1
2017-Sep-17 12:58N 44°36' E 037°54'0 0.0
2017-Sep-17 12:28N 44°36' E 037°54'0 0.0
2017-Sep-17 11:58N 44°36' E 037°54'0 0.0
2017-Sep-17 11:28N 44°36' E 037°54'0 0.0
2017-Sep-17 10:58N 44°36' E 037°54'0 0.1
2017-Sep-17 10:25N 44°36' E 037°54'0 0.1
2017-Sep-17 09:58N 44°36' E 037°54'0 0.0
2017-Sep-17 09:28N 44°36' E 037°54'0 0.0
2017-Sep-17 08:58N 44°36' E 037°54'0 0.0
2017-Sep-17 08:28N 44°36' E 037°54'0 0.1
2017-Sep-17 07:58N 44°36' E 037°54'0 0.1
2017-Sep-17 07:28N 44°36' E 037°54'0 0.1
2017-Sep-17 06:58N 44°36' E 037°54'0 0.1
2017-Sep-17 06:28N 44°36' E 037°54'0 0.1
2017-Sep-17 05:58N 44°36' E 037°54'0 0.0
2017-Sep-17 05:28N 44°36' E 037°54'0 0.1
2017-Sep-17 04:58N 44°36' E 037°54'0 0.1
2017-Sep-17 04:28N 44°36' E 037°54'0 0.1
2017-Sep-17 03:58N 44°36' E 037°54'0 0.1
2017-Sep-17 03:28N 44°36' E 037°54'0 0.0
2017-Sep-17 02:58N 44°36' E 037°54'0 0.0
2017-Sep-17 02:28N 44°36' E 037°54'0 0.0
2017-Sep-17 01:55N 44°36' E 037°54'0 0.0
2017-Sep-17 01:28N 44°36' E 037°54'0 0.0
2017-Sep-17 00:58N 44°36' E 037°54'0 0.0
2017-Sep-17 00:28N 44°36' E 037°54'0 0.0
2017-Sep-16 23:58N 44°36' E 037°54'0 0.2
2017-Sep-16 23:25N 44°36' E 037°54'0 0.5
2017-Sep-16 22:58N 44°36' E 037°54'0 0.2
2017-Sep-16 22:28N 44°36' E 037°54'0 0.2
2017-Sep-16 21:58N 44°36' E 037°54'0 0.1
2017-Sep-16 21:28N 44°36' E 037°54'0 0.0
2017-Sep-16 20:58N 44°36' E 037°54'0 0.0
2017-Sep-16 20:25N 44°36' E 037°54'0 0.1
2017-Sep-16 19:31N 44°36' E 037°54'0 0.1
2017-Sep-16 19:28N 44°36' E 037°54'0 0.1
2017-Sep-16 18:58N 44°36' E 037°54'0 0.0
2017-Sep-16 18:28N 44°36' E 037°54'0 0.2
2017-Sep-16 17:58N 44°36' E 037°54'0 0.2
2017-Sep-16 17:25N 44°36' E 037°54'0 0.0
2017-Sep-16 16:58N 44°36' E 037°54'0 0.0
2017-Sep-16 16:28N 44°36' E 037°54'0 0.1
2017-Sep-16 15:58N 44°36' E 037°54'0 0.0
2017-Sep-16 15:28N 44°36' E 037°54'0 0.2
2017-Sep-16 14:55N 44°36' E 037°54'0 0.2
2017-Sep-16 14:28N 44°36' E 037°54'0 0.1
2017-Sep-16 13:58N 44°36' E 037°54'0 0.0
2017-Sep-16 13:28N 44°36' E 037°54'0 0.0
2017-Sep-16 12:58N 44°36' E 037°54'0 0.0
2017-Sep-16 12:28N 44°36' E 037°54'0 0.0
2017-Sep-16 11:58N 44°36' E 037°54'0 0.0
2017-Sep-16 11:28N 44°36' E 037°54'0 0.1
2017-Sep-16 10:58N 44°36' E 037°54'0 0.0
2017-Sep-16 10:28N 44°36' E 037°54'0 0.0
2017-Sep-16 09:58N 44°36' E 037°54'0 0.0
2017-Sep-16 07:58N 44°36' E 037°54'0 0.2
2017-Sep-16 07:28N 44°36' E 037°54'0 0.3
2017-Sep-16 06:58N 44°36' E 037°54'0 0.0
2017-Sep-16 06:28N 44°36' E 037°54'0 0.1
2017-Sep-16 05:58N 44°36' E 037°54'0 0.2
2017-Sep-16 05:28N 44°36' E 037°54'0 0.1
2017-Sep-16 04:58N 44°36' E 037°54'0 0.1
2017-Sep-16 04:28N 44°36' E 037°54'0 0.1
2017-Sep-16 03:55N 44°36' E 037°54'0 0.0
2017-Sep-16 03:28N 44°36' E 037°54'0 0.0
2017-Sep-16 02:58N 44°36' E 037°54'0 0.0
2017-Sep-16 02:28N 44°36' E 037°54'0 0.0
2017-Sep-16 01:58N 44°36' E 037°54'0 0.0
2017-Sep-16 01:28N 44°36' E 037°54'0 0.0
2017-Sep-16 00:58N 44°36' E 037°54'0 0.1
2017-Sep-16 00:28N 44°36' E 037°54'0 0.0
2017-Sep-15 23:58N 44°36' E 037°54'0 0.1
2017-Sep-15 23:28N 44°36' E 037°54'0 0.1
2017-Sep-15 22:58N 44°36' E 037°54'0 0.0
2017-Sep-15 22:28N 44°36' E 037°54'0 0.0
2017-Sep-15 21:19N 44°36' E 037°54'0 0.1
2017-Sep-15 20:58N 44°36' E 037°54'0 0.1
2017-Sep-15 20:28N 44°36' E 037°54'0 0.0
2017-Sep-15 19:55N 44°36' E 037°54'0 0.0
2017-Sep-15 19:25N 44°36' E 037°54'0 0.1
2017-Sep-15 18:58N 44°36' E 037°54'0 0.0
2017-Sep-15 17:43N 44°36' E 037°54'0 0.2
2017-Sep-15 17:28N 44°36' E 037°54'0 0.1
2017-Sep-15 16:58N 44°36' E 037°54'0 0.1
2017-Sep-15 16:28N 44°36' E 037°54'0 0.0
2017-Sep-15 15:58N 44°36' E 037°54'0 0.1
2017-Sep-15 15:07N 44°36' E 037°54'0 0.3
2017-Sep-15 14:58N 44°36' E 037°54'0 0.1
2017-Sep-15 14:28N 44°36' E 037°54'0 0.0
2017-Sep-15 13:58N 44°36' E 037°54'0 0.0
2017-Sep-15 13:28N 44°36' E 037°54'0 0.3
2017-Sep-15 12:58N 44°36' E 037°54'0 0.6
2017-Sep-15 12:31N 44°36' E 037°54'3 5.1
2017-Sep-15 12:00N 44°36' E 037°50'3 6.3
2017-Sep-15 11:31N 44°36' E 037°46'0 1.0
2017-Sep-15 11:01N 44°36' E 037°45'1 1.2
2017-Sep-15 10:30N 44°37' E 037°45'0 0.5
2017-Sep-15 10:00N 44°37' E 037°45'1 2.6
2017-Sep-15 09:31N 44°37' E 037°47'1 1.2
2017-Sep-15 09:01N 44°38' E 037°46'0 0.6
2017-Sep-15 08:30N 44°37' E 037°46'2 3.5
2017-Sep-15 08:00N 44°37' E 037°43'3 6.3
2017-Sep-15 07:31N 44°35' E 037°42'3 5.5
2017-Sep-15 07:00N 44°32' E 037°41'2 4.0
2017-Sep-15 06:30N 44°30' E 037°40'1 1.6
2017-Sep-15 06:01N 44°29' E 037°39'1 1.5
2017-Sep-15 05:31N 44°29' E 037°38'3 5.5
2017-Sep-15 05:01N 44°28' E 037°35'510.0
2017-Sep-15 04:30N 44°24' E 037°31'5 9.7
2017-Sep-15 04:00N 44°20' E 037°26'5 9.8
2017-Sep-15 03:30N 44°16' E 037°21'31 9.4
2017-Sep-15 00:15N 44°03' E 036°43'2 9.4
2017-Sep-15 00:00N 44°02' E 036°40'5 9.5
2017-Sep-14 23:29N 44°00' E 036°34'5 9.5
2017-Sep-14 23:00N 43°58' E 036°28'11 9.5
2017-Sep-14 21:54N 43°54' E 036°15'4 9.7
2017-Sep-14 21:30N 43°53' E 036°10'5 9.8
2017-Sep-14 21:00N 43°51' E 036°04'510.0
2017-Sep-14 20:30N 43°49' E 035°57'510.2
2017-Sep-14 20:00N 43°47' E 035°51'1310.4
2017-Sep-14 18:45N 43°42' E 035°34'1210.4
2017-Sep-14 17:38N 43°37' E 035°19'110.3
2017-Sep-14 17:31N 43°37' E 035°18'510.4
2017-Sep-14 17:00N 43°35' E 035°11'510.4
2017-Sep-14 16:29N 43°32' E 035°04'810.3
2017-Sep-14 15:42N 43°29' E 034°54'  
Track history (hours):
 
Tides and Currents Weather Stations Pressure Air Temp Water Temp Dewpoint Dewpoint Depression Visibility Wind Speed Wind Dir Waves Ship Positions

Nissos Schinoussa

Last reported at 2017-Sep-24 15:09 UTC. Time now 2017-Sep-25 06:29 UTC.
Position N 36°46' E 014°10'.

Length 252 m; draft 12.7 m.

Type: Tanker. MMSI: 241385000.

Date/timePositionNaut miles runAvg speedWind from/ knotsBaromVisibWave heightAir tempDewpointWater temp
2017-Sep-24 15:09N 36°46' E 014°10'212.1
2017-Sep-24 14:57N 36°45' E 014°13'612.5
2017-Sep-24 14:28N 36°43' E 014°20'612.6
2017-Sep-24 13:59N 36°40' E 014°27'612.3
2017-Sep-24 13:30N 36°38' E 014°34'612.4
2017-Sep-24 13:00N 36°35' E 014°41'612.2
2017-Sep-24 12:30N 36°32' E 014°48'612.0
2017-Sep-24 12:00N 36°30' E 014°54'611.9
2017-Sep-24 11:30N 36°27' E 015°01'611.8
2017-Sep-24 11:00N 36°26' E 015°08'  
2017-Sep-20 20:19N 41°30' E 029°08'0 0.1
2017-Sep-20 19:59N 41°30' E 029°08'2 0.6
2017-Sep-20 16:40N 41°29' E 029°11'0 0.8
2017-Sep-20 16:30N 41°29' E 029°11'1 0.8
2017-Sep-20 15:42N 41°29' E 029°12'0 0.8
2017-Sep-20 15:23N 41°29' E 029°12'5 3.3
2017-Sep-20 13:43N 41°30' E 029°20'310.5
2017-Sep-20 13:28N 41°30' E 029°23'511.2
2017-Sep-20 13:00N 41°31' E 029°30'611.7
2017-Sep-20 12:30N 41°32' E 029°38'2712.4
2017-Sep-20 10:19N 41°43' E 030°10'613.8
2017-Sep-20 09:51N 41°47' E 030°18'613.7
2017-Sep-20 09:25N 41°50' E 030°25'613.4
2017-Sep-20 08:56N 41°52' E 030°33'512.4
2017-Sep-20 08:30N 41°55' E 030°39'812.4
2017-Sep-20 07:50N 41°59' E 030°49'7212.4
2017-Sep-20 02:00N 42°31' E 032°16'812.4
2017-Sep-20 01:19N 42°35' E 032°26'412.4
2017-Sep-20 01:00N 42°37' E 032°31'612.5
2017-Sep-20 00:30N 42°39' E 032°39'1212.3
2017-Sep-19 23:33N 42°45' E 032°53'012.5
2017-Sep-19 23:30N 42°45' E 032°54'812.6
2017-Sep-19 22:52N 42°49' E 033°04'912.5
2017-Sep-19 22:07N 42°53' E 033°15'212.4
2017-Sep-19 21:59N 42°54' E 033°17'7612.2
2017-Sep-19 15:45N 43°28' E 034°50'8012.4
2017-Sep-19 09:17N 44°04' E 036°28'5212.5
2017-Sep-19 05:07N 44°28' E 037°33'212.1
2017-Sep-19 04:57N 44°29' E 037°36'511.7
2017-Sep-19 04:30N 44°33' E 037°41'4 8.1
2017-Sep-19 04:00N 44°36' E 037°45'1 1.5
2017-Sep-19 03:30N 44°36' E 037°45'0 0.4
2017-Sep-19 03:00N 44°36' E 037°45'0 0.4
2017-Sep-19 02:30N 44°37' E 037°45'0 0.5
2017-Sep-19 02:00N 44°37' E 037°45'0 0.6
2017-Sep-19 01:30N 44°37' E 037°44'1 1.2
2017-Sep-19 01:00N 44°37' E 037°43'2 3.5
2017-Sep-19 00:30N 44°36' E 037°41'2 4.0
2017-Sep-19 00:00N 44°36' E 037°38'1 2.4
2017-Sep-18 23:30N 44°37' E 037°38'0 0.0
2017-Sep-18 09:07N 44°38' E 037°38'0 0.2
2017-Sep-18 09:00N 44°38' E 037°38'1 1.5
2017-Sep-18 08:30N 44°37' E 037°39'1 2.9
2017-Sep-18 08:00N 44°36' E 037°40'1 1.7
2017-Sep-18 07:30N 44°35' E 037°40'4 8.4
2017-Sep-18 07:00N 44°35' E 037°46'510.3
2017-Sep-18 06:30N 44°36' E 037°53'1 1.5
2017-Sep-18 05:58N 44°36' E 037°54'0 0.0
2017-Sep-18 05:28N 44°36' E 037°54'0 0.0
2017-Sep-18 04:58N 44°36' E 037°54'0 0.0
2017-Sep-18 04:28N 44°36' E 037°54'0 0.0
2017-Sep-18 03:55N 44°36' E 037°54'0 0.0
2017-Sep-18 03:28N 44°36' E 037°54'0 0.0
2017-Sep-18 02:58N 44°36' E 037°54'0 0.0
2017-Sep-18 02:28N 44°36' E 037°54'0 0.0
2017-Sep-18 01:58N 44°36' E 037°54'0 0.0
2017-Sep-18 01:28N 44°36' E 037°54'0 0.0
2017-Sep-18 00:55N 44°36' E 037°54'0 0.0
2017-Sep-18 00:28N 44°36' E 037°54'0 0.0
2017-Sep-17 23:58N 44°36' E 037°54'0 0.0
2017-Sep-17 23:25N 44°36' E 037°54'0 0.0
2017-Sep-17 22:58N 44°36' E 037°54'0 0.0
2017-Sep-17 22:25N 44°36' E 037°54'0 0.1
2017-Sep-17 21:58N 44°36' E 037°54'0 0.4
2017-Sep-17 21:28N 44°36' E 037°54'0 0.1
2017-Sep-17 20:55N 44°36' E 037°54'0 0.0
2017-Sep-17 20:28N 44°36' E 037°54'0 0.0
2017-Sep-17 19:58N 44°36' E 037°54'0 0.0
2017-Sep-17 19:28N 44°36' E 037°54'0 0.0
2017-Sep-17 18:58N 44°36' E 037°54'0 0.0
2017-Sep-17 18:28N 44°36' E 037°54'0 0.0
2017-Sep-17 17:58N 44°36' E 037°54'0 0.0
2017-Sep-17 17:28N 44°36' E 037°54'0 0.0
2017-Sep-17 16:58N 44°36' E 037°54'0 0.0
2017-Sep-17 16:28N 44°36' E 037°54'0 0.0
2017-Sep-17 15:58N 44°36' E 037°54'0 0.0
2017-Sep-17 15:28N 44°36' E 037°54'0 0.0
2017-Sep-17 14:58N 44°36' E 037°54'0 0.0
2017-Sep-17 14:28N 44°36' E 037°54'0 0.0
2017-Sep-17 13:58N 44°36' E 037°54'0 0.0
2017-Sep-17 13:28N 44°36' E 037°54'0 0.1
2017-Sep-17 12:58N 44°36' E 037°54'0 0.0
2017-Sep-17 12:28N 44°36' E 037°54'0 0.0
2017-Sep-17 11:58N 44°36' E 037°54'0 0.0
2017-Sep-17 11:28N 44°36' E 037°54'0 0.0
2017-Sep-17 10:58N 44°36' E 037°54'0 0.1
2017-Sep-17 10:25N 44°36' E 037°54'0 0.1
2017-Sep-17 09:58N 44°36' E 037°54'0 0.0
2017-Sep-17 09:28N 44°36' E 037°54'0 0.0
2017-Sep-17 08:58N 44°36' E 037°54'0 0.0
2017-Sep-17 08:28N 44°36' E 037°54'0 0.1
2017-Sep-17 07:58N 44°36' E 037°54'0 0.1
2017-Sep-17 07:28N 44°36' E 037°54'0 0.1
2017-Sep-17 06:58N 44°36' E 037°54'0 0.1
2017-Sep-17 06:28N 44°36' E 037°54'0 0.1
2017-Sep-17 05:58N 44°36' E 037°54'0 0.0
2017-Sep-17 05:28N 44°36' E 037°54'0 0.1
2017-Sep-17 04:58N 44°36' E 037°54'0 0.1
2017-Sep-17 04:28N 44°36' E 037°54'0 0.1
2017-Sep-17 03:58N 44°36' E 037°54'0 0.1
2017-Sep-17 03:28N 44°36' E 037°54'0 0.0
2017-Sep-17 02:58N 44°36' E 037°54'0 0.0
2017-Sep-17 02:28N 44°36' E 037°54'0 0.0
2017-Sep-17 01:55N 44°36' E 037°54'0 0.0
2017-Sep-17 01:28N 44°36' E 037°54'0 0.0
2017-Sep-17 00:58N 44°36' E 037°54'0 0.0
2017-Sep-17 00:28N 44°36' E 037°54'0 0.0
2017-Sep-16 23:58N 44°36' E 037°54'0 0.2
2017-Sep-16 23:25N 44°36' E 037°54'0 0.5
2017-Sep-16 22:58N 44°36' E 037°54'0 0.2
2017-Sep-16 22:28N 44°36' E 037°54'0 0.2
2017-Sep-16 21:58N 44°36' E 037°54'0 0.1
2017-Sep-16 21:28N 44°36' E 037°54'0 0.0
2017-Sep-16 20:58N 44°36' E 037°54'0 0.0
2017-Sep-16 20:25N 44°36' E 037°54'0 0.1
2017-Sep-16 19:31N 44°36' E 037°54'0 0.1
2017-Sep-16 19:28N 44°36' E 037°54'0 0.1
2017-Sep-16 18:58N 44°36' E 037°54'0 0.0
2017-Sep-16 18:28N 44°36' E 037°54'0 0.2
2017-Sep-16 17:58N 44°36' E 037°54'0 0.2
2017-Sep-16 17:25N 44°36' E 037°54'0 0.0
2017-Sep-16 16:58N 44°36' E 037°54'0 0.0
2017-Sep-16 16:28N 44°36' E 037°54'0 0.1
2017-Sep-16 15:58N 44°36' E 037°54'0 0.0
2017-Sep-16 15:28N 44°36' E 037°54'0 0.2
2017-Sep-16 14:55N 44°36' E 037°54'0 0.2
2017-Sep-16 14:28N 44°36' E 037°54'0 0.1
2017-Sep-16 13:58N 44°36' E 037°54'0 0.0
2017-Sep-16 13:28N 44°36' E 037°54'0 0.0
2017-Sep-16 12:58N 44°36' E 037°54'0 0.0
2017-Sep-16 12:28N 44°36' E 037°54'0 0.0
2017-Sep-16 11:58N 44°36' E 037°54'0 0.0
2017-Sep-16 11:28N 44°36' E 037°54'0 0.1
2017-Sep-16 10:58N 44°36' E 037°54'0 0.0
2017-Sep-16 10:28N 44°36' E 037°54'0 0.0
2017-Sep-16 09:58N 44°36' E 037°54'0 0.0
2017-Sep-16 07:58N 44°36' E 037°54'0 0.2
2017-Sep-16 07:28N 44°36' E 037°54'0 0.3
2017-Sep-16 06:58N 44°36' E 037°54'0 0.0
2017-Sep-16 06:28N 44°36' E 037°54'0 0.1
2017-Sep-16 05:58N 44°36' E 037°54'0 0.2
2017-Sep-16 05:28N 44°36' E 037°54'0 0.1
2017-Sep-16 04:58N 44°36' E 037°54'0 0.1
2017-Sep-16 04:28N 44°36' E 037°54'0 0.1
2017-Sep-16 03:55N 44°36' E 037°54'0 0.0
2017-Sep-16 03:28N 44°36' E 037°54'0 0.0
2017-Sep-16 02:58N 44°36' E 037°54'0 0.0
2017-Sep-16 02:28N 44°36' E 037°54'0 0.0
2017-Sep-16 01:58N 44°36' E 037°54'0 0.0
2017-Sep-16 01:28N 44°36' E 037°54'0 0.0
2017-Sep-16 00:58N 44°36' E 037°54'0 0.1
2017-Sep-16 00:28N 44°36' E 037°54'0 0.0
2017-Sep-15 23:58N 44°36' E 037°54'0 0.1
2017-Sep-15 23:28N 44°36' E 037°54'0 0.1
2017-Sep-15 22:58N 44°36' E 037°54'0 0.0
2017-Sep-15 22:28N 44°36' E 037°54'0 0.0
2017-Sep-15 21:19N 44°36' E 037°54'0 0.1
2017-Sep-15 20:58N 44°36' E 037°54'0 0.1
2017-Sep-15 20:28N 44°36' E 037°54'0 0.0
2017-Sep-15 19:55N 44°36' E 037°54'0 0.0
2017-Sep-15 19:25N 44°36' E 037°54'0 0.1
2017-Sep-15 18:58N 44°36' E 037°54'0 0.0
2017-Sep-15 17:43N 44°36' E 037°54'0 0.2
2017-Sep-15 17:28N 44°36' E 037°54'0 0.1
2017-Sep-15 16:58N 44°36' E 037°54'0 0.1
2017-Sep-15 16:28N 44°36' E 037°54'0 0.0
2017-Sep-15 15:58N 44°36' E 037°54'0 0.1
2017-Sep-15 15:07N 44°36' E 037°54'0 0.3
2017-Sep-15 14:58N 44°36' E 037°54'0 0.1
2017-Sep-15 14:28N 44°36' E 037°54'0 0.0
2017-Sep-15 13:58N 44°36' E 037°54'0 0.0
2017-Sep-15 13:28N 44°36' E 037°54'0 0.3
2017-Sep-15 12:58N 44°36' E 037°54'0 0.6
2017-Sep-15 12:31N 44°36' E 037°54'3 5.1
2017-Sep-15 12:00N 44°36' E 037°50'3 6.3
2017-Sep-15 11:31N 44°36' E 037°46'0 1.0
2017-Sep-15 11:01N 44°36' E 037°45'1 1.2
2017-Sep-15 10:30N 44°37' E 037°45'0 0.5
2017-Sep-15 10:00N 44°37' E 037°45'1 2.6
2017-Sep-15 09:31N 44°37' E 037°47'1 1.2
2017-Sep-15 09:01N 44°38' E 037°46'0 0.6
2017-Sep-15 08:30N 44°37' E 037°46'2 3.5
2017-Sep-15 08:00N 44°37' E 037°43'3 6.3
2017-Sep-15 07:31N 44°35' E 037°42'3 5.5
2017-Sep-15 07:00N 44°32' E 037°41'2 4.0
2017-Sep-15 06:30N 44°30' E 037°40'1 1.6
2017-Sep-15 06:01N 44°29' E 037°39'1 1.5
2017-Sep-15 05:31N 44°29' E 037°38'3 5.5
2017-Sep-15 05:01N 44°28' E 037°35'510.0
2017-Sep-15 04:30N 44°24' E 037°31'5 9.7
2017-Sep-15 04:00N 44°20' E 037°26'5 9.8
2017-Sep-15 03:30N 44°16' E 037°21'31 9.4
2017-Sep-15 00:15N 44°03' E 036°43'2 9.4
2017-Sep-15 00:00N 44°02' E 036°40'5 9.5
2017-Sep-14 23:29N 44°00' E 036°34'5 9.5
2017-Sep-14 23:00N 43°58' E 036°28'11 9.5
2017-Sep-14 21:54N 43°54' E 036°15'4 9.7
2017-Sep-14 21:30N 43°53' E 036°10'5 9.8
2017-Sep-14 21:00N 43°51' E 036°04'510.0
2017-Sep-14 20:30N 43°49' E 035°57'510.2
2017-Sep-14 20:00N 43°47' E 035°51'1310.4
2017-Sep-14 18:45N 43°42' E 035°34'1210.4
2017-Sep-14 17:38N 43°37' E 035°19'110.3
2017-Sep-14 17:31N 43°37' E 035°18'510.4
2017-Sep-14 17:00N 43°35' E 035°11'510.4
2017-Sep-14 16:29N 43°32' E 035°04'810.3
2017-Sep-14 15:42N 43°29' E 034°54'  

Dump ship's entire track history